Time;durP1;ratioP1;P1;durP2;ratioP2;P2;SDS_P1;SDS_P2;PMS_P1;PMS_P2;Temp;Humidity;BMP_temperature;BMP_pressure;BME280_temperature;BME280_humidity;BME280_pressure;Samples;Min_cycle;Max_cycle;Signal;HPM_P1;HPM_P2
2021/10/07 00:01:51;;;;;;;10.63;6.35;;;;;;;14.39;73.44;100959.78;2148251;81;31124;-62
2021/10/07 00:04:56;;;;;;;9.83;6.20;;;;;;;14.39;73.44;100961.12;2148763;81;32992;-62
2021/10/07 00:08:03;;;;;;;11.60;6.28;;;;;;;14.38;73.41;100960.73;2119505;81;29989;-62
2021/10/07 00:11:12;;;;;;;11.18;6.55;;;;;;;14.38;73.43;100960.73;2136250;81;27738;-62
2021/10/07 00:14:15;;;;;;;9.68;5.58;;;;;;;14.38;73.43;100958.93;2127554;81;28722;-62
2021/10/07 00:17:21;;;;;;;9.53;5.80;;;;;;;14.38;73.46;100959.39;2118717;81;31903;-62
2021/10/07 00:20:27;;;;;;;7.87;5.12;;;;;;;14.36;73.39;100962.64;2092232;83;33093;-62
2021/10/07 00:23:36;;;;;;;12.25;4.75;;;;;;;14.37;73.41;100958.53;2131393;81;29211;-62
2021/10/07 00:26:41;;;;;;;8.80;5.42;;;;;;;14.38;73.40;100958.93;2144939;81;28283;-62
2021/10/07 00:29:47;;;;;;;10.28;5.62;;;;;;;14.39;73.31;100964.72;2109296;81;28701;-62
2021/10/07 00:36:34;;;;;;;9.90;5.35;;;;;;;14.41;73.47;100961.43;2117056;82;33406;-63
2021/10/07 00:39:18;;;;;;;10.03;5.78;;;;;;;14.43;73.34;100965.41;2125380;81;29513;-63
2021/10/07 00:42:20;;;;;;;11.25;5.65;;;;;;;14.42;73.43;100955.58;2129992;81;27853;-63
2021/10/07 00:45:24;;;;;;;10.03;5.35;;;;;;;14.42;73.44;100964.52;2135623;81;28752;-63
2021/10/07 00:48:30;;;;;;;13.75;6.03;;;;;;;14.43;73.43;100960.02;2146953;81;31131;-63
2021/10/07 00:51:36;;;;;;;10.32;5.67;;;;;;;14.44;73.37;100965.30;2110973;82;33617;-64
2021/10/07 00:54:41;;;;;;;9.43;6.67;;;;;;;14.46;73.44;100964.36;2130916;81;29366;-63
2021/10/07 00:57:46;;;;;;;10.72;6.70;;;;;;;14.49;73.45;100961.49;2149454;81;27774;-63
2021/10/07 01:00:52;;;;;;;;;;;;;;;14.50;73.54;100961.89;2118925;81;29365;-63
2021/10/07 01:03:57;;;;;;;12.03;7.17;;;;;;;14.49;73.38;100962.34;2149651;80;31679;-63
2021/10/07 01:07:00;;;;;;;;;;;;;;;14.47;73.45;100960.70;2148592;81;33644;-63
2021/10/07 01:10:07;;;;;;;12.10;7.62;;;;;;;14.46;73.41;100960.31;2168263;81;29330;-63
2021/10/07 01:13:12;;;;;;;15.53;7.78;;;;;;;14.42;73.44;100960.47;2120701;81;27765;-63
2021/10/07 01:16:18;;;;;;;13.30;7.60;;;;;;;14.41;73.43;100960.08;2114165;81;29861;-63
2021/10/07 01:19:26;;;;;;;10.18;7.05;;;;;;;14.41;73.42;100960.08;2126776;81;31207;-63
2021/10/07 01:22:28;;;;;;;11.75;7.72;;;;;;;14.43;73.46;100962.71;2129962;80;33955;-63
2021/10/07 01:25:36;;;;;;;12.25;6.37;;;;;;;14.45;73.43;100963.50;2117311;82;29425;-63
2021/10/07 01:28:41;;;;;;;11.57;6.47;;;;;;;14.47;73.52;100964.29;2146275;81;27918;-63
2021/10/07 01:31:42;;;;;;;10.65;6.20;;;;;;;14.46;73.32;100965.70;2109793;81;29198;-63
2021/10/07 01:34:47;;;;;;;10.70;6.60;;;;;;;14.43;73.27;100962.71;2120184;81;31075;-62
2021/10/07 01:37:54;;;;;;;9.95;6.47;;;;;;;14.39;73.34;100964.72;2132761;81;33796;-63
2021/10/07 01:41:00;;;;;;;8.80;5.60;;;;;;;14.36;73.17;100970.73;2132342;81;29374;-63
2021/10/07 01:44:06;;;;;;;9.90;5.80;;;;;;;14.35;73.20;100971.68;2137223;80;27725;-63
2021/10/07 01:47:12;;;;;;;9.73;5.35;;;;;;;14.36;73.34;100971.62;2132826;80;28718;-63
2021/10/07 01:50:18;;;;;;;9.10;5.87;;;;;;;14.38;73.24;100980.49;2110889;82;31680;-63
2021/10/07 01:53:23;;;;;;;8.58;5.42;;;;;;;14.37;73.03;100980.56;2089767;82;33110;-63
2021/10/07 01:56:29;;;;;;;14.07;5.40;;;;;;;14.35;72.84;100978.42;2103670;82;29425;-63
2021/10/07 01:59:33;;;;;;;8.33;5.60;;;;;;;14.33;72.80;100982.56;2064665;84;27766;-63
2021/10/07 02:02:39;;;;;;;11.78;5.22;;;;;;;14.31;72.83;100984.47;2072018;84;28678;-63
2021/10/07 02:05:45;;;;;;;7.22;5.20;;;;;;;14.29;72.84;100986.37;2035202;84;31903;-63
2021/10/07 02:08:48;;;;;;;11.78;4.97;;;;;;;14.28;72.99;100983.27;2066256;84;33016;-63
2021/10/07 02:14:56;;;;;;;6.67;4.72;;;;;;;14.27;72.77;100998.59;2075624;82;27843;-63
2021/10/07 02:17:58;;;;;;;9.30;5.08;;;;;;;14.30;72.94;100998.89;2147530;80;28888;-63
2021/10/07 02:21:03;;;;;;;13.38;5.78;;;;;;;14.33;72.93;101001.42;2136540;81;31214;-63
2021/10/07 02:24:08;;;;;;;;;;;;;;;14.32;72.79;100999.69;2133990;81;33790;-63
2021/10/07 02:27:10;;;;;;;10.60;6.08;;;;;;;14.32;72.87;101002.84;2134868;81;29376;-63
2021/10/07 02:30:17;;;;;;;9.30;5.60;;;;;;;14.27;72.70;101002.63;2162228;81;27709;-62
2021/10/07 02:33:24;;;;;;;10.05;4.87;;;;;;;14.23;72.77;101006.44;2142844;81;28732;-63
2021/10/07 02:36:30;;;;;;;8.20;4.83;;;;;;;14.24;72.94;101012.69;2098782;83;31058;-63
2021/10/07 02:39:33;;;;;;;12.73;4.72;;;;;;;14.23;72.77;101006.44;2139375;81;33110;-63
2021/10/07 02:42:36;;;;;;;8.83;5.53;;;;;;;14.19;72.68;101005.34;2145321;82;30142;-63
2021/10/07 02:45:37;;;;;;;9.85;5.70;;;;;;;14.13;72.55;101008.75;2104819;83;27799;-64
2021/10/07 02:48:44;;;;;;;10.88;5.70;;;;;;;14.12;72.82;101015.09;2103096;83;28496;-63
2021/10/07 02:51:50;;;;;;;9.48;5.50;;;;;;;14.12;72.90;101023.17;2120484;82;31697;-63
2021/10/07 02:54:56;;;;;;;11.20;5.25;;;;;;;14.11;72.88;101019.23;2136693;81;32979;-62
2021/10/07 02:58:00;;;;;;;8.78;5.10;;;;;;;14.12;73.00;101025.88;2091278;83;29339;-63
2021/10/07 03:01:06;;;;;;;10.90;5.77;;;;;;;14.12;73.01;101027.71;2122801;81;27692;-63
2021/10/07 03:04:11;;;;;;;9.25;4.78;;;;;;;14.12;72.89;101032.61;2132242;82;28663;-63
2021/10/07 03:07:16;;;;;;;;;;;;;;;14.08;72.91;101028.33;2118256;82;32051;-63
2021/10/07 03:10:20;;;;;;;10.88;5.75;;;;;;;14.09;72.97;101027.37;2120612;81;33869;-63
2021/10/07 03:13:21;;;;;;;10.63;5.03;;;;;;;14.07;72.98;101034.66;2126149;81;29338;-63
2021/10/07 03:16:23;;;;;;;9.23;5.12;;;;;;;14.06;72.91;101035.64;2117867;81;27759;-63
2021/10/07 03:19:30;;;;;;;9.50;4.92;;;;;;;14.06;72.89;101040.14;2147811;81;28797;-62
2021/10/07 03:22:35;;;;;;;14.13;5.75;;;;;;;14.03;72.99;101047.03;2108737;83;31050;-62
2021/10/07 03:25:39;;;;;;;13.20;5.42;;;;;;;14.02;72.89;101046.64;2092716;83;33919;-62
2021/10/07 03:28:43;;;;;;;9.05;5.67;;;;;;;14.01;72.95;101049.83;2097163;82;29357;-63
2021/10/07 03:31:45;;;;;;;9.30;5.67;;;;;;;14.01;72.89;101055.67;2134971;81;27875;-63
2021/10/07 03:34:51;;;;;;;9.88;5.62;;;;;;;14.01;73.02;101060.59;2136932;82;29086;-61
2021/10/07 03:37:52;;;;;;;8.45;5.78;;;;;;;13.99;72.93;101055.77;2152994;81;31887;-63
2021/10/07 03:40:57;;;;;;;13.40;5.42;;;;;;;14.01;72.94;101057.02;2153935;81;33833;-63
2021/10/07 03:44:02;;;;;;;;;;;;;;;14.02;73.01;101065.49;2139210;81;29452;-63
2021/10/07 03:47:09;;;;;;;12.33;7.33;;;;;;;14.00;72.98;101061.55;2144857;80;27713;-63
2021/10/07 03:50:11;;;;;;;9.05;6.20;;;;;;;13.93;72.83;101070.87;2119498;81;28629;-62
2021/10/07 03:53:17;;;;;;;8.60;5.30;;;;;;;13.90;72.97;101073.76;2134615;81;31705;-63
2021/10/07 03:56:20;;;;;;;12.13;5.70;;;;;;;13.90;73.03;101077.80;2137151;81;33032;-63
2021/10/07 03:59:26;;;;;;;11.63;6.05;;;;;;;13.88;72.92;101081.90;2149725;81;29782;-63
2021/10/07 04:02:32;;;;;;;12.63;6.28;;;;;;;13.88;73.00;101078.35;2118537;81;27820;-63
2021/10/07 04:05:37;;;;;;;11.50;6.30;;;;;;;13.88;73.06;101087.28;2150565;81;28731;-62
2021/10/07 04:08:42;;;;;;;9.43;6.05;;;;;;;13.89;73.06;101085.48;2150968;80;31041;-62
2021/10/07 04:11:44;;;;;;;10.95;6.53;;;;;;;13.88;73.00;101092.67;2122022;81;33010;-63
2021/10/07 04:14:50;;;;;;;13.68;7.37;;;;;;;13.86;72.93;101093.22;2141751;81;29476;-62
2021/10/07 04:17:51;;;;;;;13.43;7.12;;;;;;;13.85;73.06;101100.05;2136634;81;27862;-62
2021/10/07 04:20:57;;;;;;;11.25;7.33;;;;;;;13.86;73.21;101096.41;2123951;81;28989;-62
2021/10/07 04:23:59;;;;;;;11.93;7.37;;;;;;;13.87;73.11;101102.19;2126875;81;31019;-62
2021/10/07 04:27:00;;;;;;;13.25;7.45;;;;;;;13.89;73.17;101107.89;2116299;81;33744;-63
2021/10/07 04:30:05;;;;;;;20.12;13.32;;;;;;;13.91;73.22;101102.41;2129204;81;29932;-62
2021/10/07 04:33:12;;;;;;;19.30;12.30;;;;;;;13.92;73.21;101102.35;2131209;81;28266;-62
2021/10/07 04:36:18;;;;;;;14.78;10.68;;;;;;;13.94;73.22;101098.22;2132177;81;28663;-62
2021/10/07 04:39:19;;;;;;;19.40;11.80;;;;;;;13.97;73.26;101098.07;2111218;82;31064;-62
2021/10/07 04:42:24;;;;;;;14.53;10.78;;;;;;;14.00;73.31;101104.66;2138461;81;32807;-62
2021/10/07 04:45:30;;;;;;;17.87;11.48;;;;;;;14.01;73.30;101110.90;2122305;81;29345;-62
2021/10/07 04:48:32;;;;;;;16.50;11.88;;;;;;;13.99;73.23;101105.59;2142000;80;27824;-62
2021/10/07 04:51:38;;;;;;;19.57;11.97;;;;;;;13.99;73.28;101105.59;2140697;80;29064;-62
2021/10/07 04:54:41;;;;;;;17.32;12.43;;;;;;;13.98;73.25;101103.86;2122167;81;31051;-62
2021/10/07 04:57:47;;;;;;;20.52;12.30;;;;;;;14.01;73.37;101114.48;2112392;82;33788;-62
2021/10/07 05:00:52;;;;;;;21.45;14.95;;;;;;;14.01;73.36;101120.33;2145366;81;29371;-61
2021/10/07 05:03:59;;;;;;;21.77;13.55;;;;;;;14.02;73.46;101129.70;2149592;81;27613;-62
2021/10/07 05:07:01;;;;;;;26.52;17.95;;;;;;;14.04;73.45;101136.34;2141921;81;28674;-62
2021/10/07 05:10:07;;;;;;;23.00;16.90;;;;;;;14.04;73.45;101127.80;2134558;81;31472;-62
2021/10/07 05:13:08;;;;;;;22.87;14.45;;;;;;;14.07;73.52;101133.50;2129435;81;33005;-62
2021/10/07 05:16:11;;;;;;;20.82;16.17;;;;;;;14.08;73.50;101132.55;2136456;81;29545;-62
2021/10/07 05:19:17;;;;;;;26.62;16.67;;;;;;;14.10;73.55;101129.30;2133224;81;27694;-62
2021/10/07 05:22:20;;;;;;;23.92;16.73;;;;;;;14.08;73.55;101129.36;2142309;81;28888;-62
2021/10/07 05:25:23;;;;;;;26.25;17.20;;;;;;;14.12;73.69;101134.14;2125371;81;31014;-63
2021/10/07 05:28:26;;;;;;;28.57;17.20;;;;;;;14.13;73.67;101125.97;2102745;82;32977;-62
2021/10/07 05:31:28;;;;;;;25.80;17.02;;;;;;;14.16;73.66;101133.01;2084804;83;30687;-62
2021/10/07 05:34:30;;;;;;;31.77;19.07;;;;;;;14.17;73.71;101135.25;2087448;82;28093;-62
2021/10/07 05:37:33;;;;;;;26.40;16.87;;;;;;;14.18;73.74;101136.50;2150993;81;29905;-63
2021/10/07 05:40:36;;;;;;;28.27;17.45;;;;;;;14.21;73.77;101139.53;2145250;81;31559;-62
2021/10/07 05:43:38;;;;;;;29.27;17.62;;;;;;;14.23;73.74;101136.30;2117624;82;32991;-63
2021/10/07 05:46:39;;;;;;;23.75;16.97;;;;;;;14.25;73.70;101147.38;2088152;84;29767;-63
2021/10/07 05:49:45;;;;;;;27.32;17.00;;;;;;;14.30;73.77;101144.44;2093228;84;28339;-62
2021/10/07 05:52:52;;;;;;;30.08;17.45;;;;;;;14.36;73.75;101155.37;2072347;84;28694;-61
2021/10/07 05:55:57;;;;;;;23.45;15.98;;;;;;;14.38;73.71;101156.17;2078429;84;31080;-62
2021/10/07 05:59:00;;;;;;;;;;;;;;;14.42;73.58;101161.31;2136385;81;33804;-62
2021/10/07 06:02:05;;;;;;;24.47;16.27;;;;;;;14.42;73.54;101171.24;2146857;81;29455;-63
2021/10/07 06:05:11;;;;;;;;;;;;;;;14.41;73.56;101166.80;2119094;82;27723;-62
2021/10/07 06:08:16;;;;;;;;;;;;;;;14.40;73.56;101166.41;2136482;81;28688;-62
2021/10/07 06:11:20;;;;;;;24.50;15.55;;;;;;;14.41;73.68;101173.05;2167602;81;31806;-64
2021/10/07 06:14:26;;;;;;;23.98;17.27;;;;;;;14.44;73.80;101172.89;2161536;81;33956;-63
2021/10/07 06:17:30;;;;;;;22.70;16.20;;;;;;;14.51;73.74;101181.53;2102555;82;29450;-62
2021/10/07 06:20:37;;;;;;;30.03;17.87;;;;;;;14.57;73.72;101180.34;2110163;81;27744;-63
2021/10/07 06:23:44;;;;;;;28.40;17.55;;;;;;;14.64;73.70;101172.83;2108165;82;28830;-64
2021/10/07 06:26:46;;;;;;;29.25;19.10;;;;;;;14.69;73.48;101189.19;2105936;81;31880;-64
2021/10/07 06:29:53;;;;;;;30.30;20.08;;;;;;;14.74;73.54;101187.09;2120597;82;33537;-63
2021/10/07 06:33:00;;;;;;;28.12;18.30;;;;;;;14.74;73.37;101185.75;2074656;84;29513;-63
2021/10/07 06:36:06;;;;;;;29.05;18.57;;;;;;;14.76;73.52;101190.19;2101949;82;28468;-63
2021/10/07 06:39:18;;;;;;;31.30;19.20;;;;;;;14.81;73.53;101192.18;2142693;81;28707;-63
2021/10/07 06:42:24;;;;;;;25.15;18.87;;;;;;;14.86;73.46;101192.32;2075533;84;31116;-63
2021/10/07 06:45:30;;;;;;;31.75;20.27;;;;;;;14.92;73.46;101203.26;2051142;83;33090;-63
2021/10/07 06:48:36;;;;;;;28.65;21.05;;;;;;;15.01;73.37;101195.15;2056576;83;29684;-63
2021/10/07 06:51:43;;;;;;;29.18;20.05;;;;;;;15.02;73.16;101191.50;2053711;83;29095;-63
2021/10/07 06:54:46;;;;;;;33.40;20.48;;;;;;;15.02;73.21;101192.39;2070706;83;28867;-64
2021/10/07 06:57:51;;;;;;;30.43;22.02;;;;;;;15.07;73.17;101191.24;2076691;84;32407;-62
2021/10/07 07:00:57;;;;;;;27.13;19.82;;;;;;;15.07;73.12;101196.18;2058889;85;33040;-64
2021/10/07 07:04:04;;;;;;;31.10;20.70;;;;;;;15.11;73.08;101200.92;2064029;85;29386;-63
2021/10/07 07:07:10;;;;;;;36.03;22.73;;;;;;;15.09;72.89;101206.87;2061906;84;27798;-63
2021/10/07 07:10:19;;;;;;;33.15;23.00;;;;;;;15.10;72.86;101214.02;2039029;85;28671;-63
2021/10/07 07:13:25;;;;;;;33.20;22.87;;;;;;;15.11;72.89;101210.37;2068678;84;32118;-63
2021/10/07 07:16:29;;;;;;;38.48;24.05;;;;;;;15.17;73.06;101218.14;2025235;85;32980;-63
2021/10/07 07:19:34;;;;;;;45.73;28.07;;;;;;;15.22;72.98;101220.59;2064259;84;30564;-63
2021/10/07 07:22:41;;;;;;;42.30;28.57;;;;;;;15.25;72.81;101224.48;2046358;85;27840;-63
2021/10/07 07:25:49;;;;;;;38.45;27.98;;;;;;;15.21;72.66;101229.17;2083347;83;27705;-62
2021/10/07 07:28:55;;;;;;;39.10;27.80;;;;;;;14.99;72.65;101201.10;2068609;84;31258;-63
2021/10/07 07:32:03;;;;;;;41.48;28.02;;;;;;;15.23;72.90;101229.94;2035377;85;33072;-63
2021/10/07 07:35:10;;;;;;;38.42;26.02;;;;;;;15.35;73.09;101229.75;2010296;86;29364;-64
2021/10/07 07:38:16;;;;;;;37.48;26.93;;;;;;;15.46;72.89;101234.56;1986466;87;28139;-63
2021/10/07 07:41:23;;;;;;;38.95;28.52;;;;;;;15.52;72.68;101238.29;2076694;83;28679;-63
2021/10/07 07:44:30;;;;;;;42.45;29.45;;;;;;;15.58;72.52;101243.33;2086935;81;31301;-63
2021/10/07 07:47:41;;;;;;;41.18;29.23;;;;;;;15.67;72.46;101238.39;2168698;80;33793;-63
2021/10/07 07:50:46;;;;;;;43.17;31.05;;;;;;;15.75;72.54;101240.16;2175335;80;29355;-63
2021/10/07 07:53:52;;;;;;;40.70;28.95;;;;;;;15.78;72.10;101241.34;2178373;81;27588;-63
2021/10/07 07:56:59;;;;;;;42.48;29.07;;;;;;;15.78;71.98;101244.94;2148550;81;28461;-64
2021/10/07 08:00:06;;;;;;;37.95;27.10;;;;;;;15.83;71.88;101244.67;2158282;81;31061;-65
2021/10/07 08:03:09;;;;;;;37.73;25.90;;;;;;;15.92;71.81;101246.02;2103461;82;33684;-63
2021/10/07 08:06:13;;;;;;;40.28;26.82;;;;;;;16.02;71.70;101253.12;2079927;84;29124;-62
2021/10/07 08:09:15;;;;;;;40.98;28.30;;;;;;;16.12;71.76;101262.42;2124899;80;27799;-63
2021/10/07 08:12:19;;;;;;;36.08;26.00;;;;;;;16.16;71.20;101258.59;2124478;82;28682;-62
2021/10/07 08:15:25;;;;;;;40.67;27.60;;;;;;;16.11;71.19;101262.03;2073770;84;31858;-63
2021/10/07 08:18:33;;;;;;;45.78;27.73;;;;;;;16.10;71.25;101257.59;2065287;84;32976;-64
2021/10/07 08:21:41;;;;;;;38.15;27.98;;;;;;;16.06;71.36;101258.25;2065868;84;29352;-62
2021/10/07 08:24:44;;;;;;;41.70;28.87;;;;;;;16.06;71.31;101266.36;2074032;84;27770;-63
2021/10/07 08:27:49;;;;;;;41.13;28.55;;;;;;;15.94;70.79;101266.58;2063701;83;29587;-64
2021/10/07 08:30:54;;;;;;;36.23;26.52;;;;;;;15.94;70.79;101266.58;2168309;81;31096;-63
2021/10/07 08:33:58;;;;;;;37.98;29.32;;;;;;;15.92;71.09;101269.84;2127562;83;32962;-64
2021/10/07 08:37:04;;;;;;;41.40;29.72;;;;;;;16.00;71.24;101273.45;2080037;82;30139;-62
2021/10/07 08:40:12;;;;;;;47.23;32.10;;;;;;;16.12;71.37;101277.79;2108074;81;27649;-64
2021/10/07 08:43:19;;;;;;;42.00;29.18;;;;;;;16.23;71.18;101274.84;2087074;82;28661;-62
2021/10/07 08:46:26;;;;;;;42.27;31.42;;;;;;;16.26;70.55;101275.16;2130810;81;31124;-63
2021/10/07 08:49:36;;;;;;;44.42;32.58;;;;;;;16.26;70.55;101275.16;2083593;82;33076;-63
2021/10/07 08:52:36;;;;;;;46.35;33.20;;;;;;;16.14;70.34;101274.49;2130808;81;29406;-63
2021/10/07 08:55:43;;;;;;;47.98;32.90;;;;;;;16.14;70.34;101274.49;2152980;81;27600;-63
2021/10/07 08:58:44;;;;;;;42.90;29.50;;;;;;;16.07;70.52;101269.45;2156390;81;29519;-64
2021/10/07 09:01:49;;;;;;;48.33;31.57;;;;;;;16.09;70.56;101274.77;2150261;81;32271;-64
2021/10/07 09:04:55;;;;;;;40.45;30.30;;;;;;;16.09;70.59;101278.81;2135955;81;33777;-64
2021/10/07 09:08:09;;;;;;;46.08;34.20;;;;;;;16.10;70.52;101277.86;2073678;84;29398;-63
2021/10/07 09:11:32;;;;;;;56.23;37.23;;;;;;;16.15;70.48;101274.88;2049725;86;27736;-65
2021/10/07 09:14:38;;;;;;;46.65;31.57;;;;;;;16.18;70.49;101283.72;2098021;82;29507;-65
2021/10/07 09:17:46;;;;;;;46.42;32.45;;;;;;;16.16;70.21;101285.63;2132577;81;31153;-63
2021/10/07 09:20:56;;;;;;;46.13;32.23;;;;;;;16.21;70.34;101282.19;2109231;81;32997;-64
2021/10/07 09:23:59;;;;;;;47.23;33.63;;;;;;;16.24;69.89;101281.98;2139241;81;29969;-63
2021/10/07 09:27:09;;;;;;;46.35;31.30;;;;;;;16.31;69.76;101289.75;2157916;81;27615;-63
2021/10/07 09:30:12;;;;;;;44.00;30.45;;;;;;;16.31;69.94;101289.75;2104978;82;29325;-63
2021/10/07 09:33:18;;;;;;;44.65;31.62;;;;;;;16.33;69.91;101290.55;2164218;81;31403;-63
2021/10/07 09:36:24;;;;;;;46.55;32.15;;;;;;;16.39;69.87;101295.11;2130131;81;32977;-63
2021/10/07 09:39:32;;;;;;;45.88;32.60;;;;;;;16.37;69.69;101292.97;2164605;81;29967;-63
2021/10/07 09:42:43;;;;;;;47.50;32.83;;;;;;;16.29;69.42;101296.62;2160484;81;27675;-64
2021/10/07 09:45:49;;;;;;;48.85;33.02;;;;;;;16.23;69.41;101293.77;2144833;81;28817;-63
2021/10/07 09:48:54;;;;;;;48.90;34.50;;;;;;;16.24;69.54;101302.77;2106923;82;31884;-64
2021/10/07 09:51:56;;;;;;;46.50;31.95;;;;;;;16.24;69.54;101302.77;2141235;81;33790;-63
2021/10/07 09:54:58;;;;;;;47.45;32.23;;;;;;;16.22;69.60;101303.33;2128661;81;29514;-64
2021/10/07 09:58:11;;;;;;;47.55;33.28;;;;;;;16.16;69.31;101308.61;2143477;81;27822;-64
2021/10/07 10:01:14;;;;;;;45.05;33.38;;;;;;;16.06;69.14;101316.37;2162154;81;28718;-64
2021/10/07 10:04:21;;;;;;;45.25;31.05;;;;;;;15.96;69.45;101315.16;2159954;81;31445;-63
2021/10/07 10:07:25;;;;;;;45.85;31.10;;;;;;;15.91;69.41;101309.13;2180845;80;32962;-63
2021/10/07 10:10:34;;;;;;;41.05;30.17;;;;;;;15.87;69.45;101312.48;2172729;80;28206;-63
2021/10/07 10:13:39;;;;;;;45.40;31.17;;;;;;;15.84;69.29;101319.83;2166375;80;27640;-63
2021/10/07 10:16:46;;;;;;;45.05;32.05;;;;;;;15.67;69.39;101309.48;2115816;82;28848;-64
2021/10/07 10:19:52;;;;;;;44.18;32.17;;;;;;;15.65;69.33;101322.19;2123804;81;31743;-63
2021/10/07 10:23:02;;;;;;;48.28;32.95;;;;;;;15.65;69.33;101322.19;2134013;80;32973;-63
2021/10/07 10:26:11;;;;;;;51.60;34.43;;;;;;;15.65;69.31;101326.24;2120918;81;29996;-63
2021/10/07 10:29:22;;;;;;;51.05;34.45;;;;;;;15.59;69.24;101326.11;2127242;83;27635;-64
2021/10/07 10:32:31;;;;;;;49.35;34.90;;;;;;;15.57;69.38;101323.96;2130457;82;28706;-63
2021/10/07 10:35:40;;;;;;;45.83;33.95;;;;;;;15.61;69.43;101320.64;2143513;82;31058;-63
2021/10/07 10:38:43;;;;;;;48.83;32.67;;;;;;;15.58;69.30;101307.30;2144054;81;32803;-64
2021/10/07 10:42:00;;;;;;;48.58;31.30;;;;;;;15.58;69.30;101307.30;2094440;81;29381;-64
2021/10/07 10:45:07;;;;;;;59.80;39.05;;;;;;;15.76;69.34;101324.31;2113689;83;27686;-65
2021/10/07 10:48:13;;;;;;;48.38;33.83;;;;;;;15.88;69.46;101333.61;2112608;82;28664;-63
2021/10/07 10:51:22;;;;;;;45.73;31.30;;;;;;;15.96;69.09;101332.72;2110392;82;32403;-64
2021/10/07 10:54:30;;;;;;;47.53;32.88;;;;;;;16.04;69.18;101332.29;2169786;80;33757;-63
2021/10/07 10:57:44;;;;;;;50.70;33.40;;;;;;;16.12;68.45;101305.68;2178256;80;29778;-65
2021/10/07 11:00:48;;;;;;;43.70;33.40;;;;;;;16.31;68.29;101312.74;2176951;80;27780;-63
2021/10/07 11:03:57;;;;;;;44.85;31.93;;;;;;;16.31;68.29;101312.74;2155252;80;28715;-63
2021/10/07 11:07:25;;;;;;;42.83;31.62;;;;;;;16.54;67.70;101315.00;2118072;81;30682;-63
2021/10/07 11:10:35;;;;;;;42.40;32.73;;;;;;;16.54;67.70;101315.00;2142542;81;33014;-63
2021/10/07 11:13:48;;;;;;;42.40;32.08;;;;;;;16.63;67.53;101337.90;2132882;81;30151;-63
2021/10/07 11:16:54;;;;;;;39.58;31.00;;;;;;;16.68;67.79;101334.45;2148163;81;27639;-63
2021/10/07 11:20:00;;;;;;;47.50;32.17;;;;;;;16.84;67.23;101332.19;2138998;82;28653;-63
2021/10/07 11:23:18;;;;;;;42.38;30.45;;;;;;;17.00;67.75;101326.78;2137703;81;31063;-63
2021/10/07 11:26:36;;;;;;;42.62;29.65;;;;;;;17.23;67.37;101326.73;2140339;81;33788;-62
2021/10/07 11:29:38;;;;;;;45.40;32.10;;;;;;;17.44;66.44;101329.94;2148380;81;30562;-63
2021/10/07 11:32:40;;;;;;;51.85;38.40;;;;;;;17.67;67.12;101328.99;2137685;81;28010;-63
2021/10/07 11:35:42;;;;;;;37.50;28.80;;;;;;;17.90;66.77;101332.95;2183401;81;29208;-63
2021/10/07 11:38:48;;;;;;;33.83;26.30;;;;;;;18.01;65.59;101330.94;2141452;81;31448;-63
2021/10/07 11:41:53;;;;;;;36.53;26.27;;;;;;;18.01;64.82;101335.47;2138015;81;32953;-63
2021/10/07 11:45:00;;;;;;;39.33;28.17;;;;;;;18.01;65.22;101336.83;2162884;81;30486;-63
2021/10/07 11:48:10;;;;;;;44.98;29.48;;;;;;;18.06;64.64;101332.84;2149987;81;27845;-62
2021/10/07 11:51:28;;;;;;;40.65;28.65;;;;;;;18.09;64.64;101335.86;2152611;81;29567;-62
2021/10/07 11:54:31;;;;;;;41.70;30.02;;;;;;;18.07;64.46;101331.87;2151983;81;31099;-62
2021/10/07 11:57:38;;;;;;;40.90;29.75;;;;;;;18.19;64.41;101330.21;2154974;81;33022;-63
2021/10/07 12:00:50;;;;;;;38.95;30.48;;;;;;;18.28;63.92;101329.23;2146990;81;29107;-63
2021/10/07 12:04:02;;;;;;;41.25;29.52;;;;;;;18.21;63.13;101330.98;2105142;82;27649;-63
2021/10/07 12:07:09;;;;;;;45.85;32.98;;;;;;;18.19;63.64;101338.84;2122485;82;29357;-62
2021/10/07 12:10:17;;;;;;;41.60;31.02;;;;;;;18.08;63.48;101336.83;2063454;84;32946;-62
2021/10/07 12:13:26;;;;;;;44.70;33.10;;;;;;;18.02;63.92;101345.34;2141236;81;33689;-62
2021/10/07 12:16:42;;;;;;;40.20;30.60;;;;;;;18.06;63.67;101343.69;2132847;81;29234;-62
2021/10/07 12:19:48;;;;;;;39.00;29.30;;;;;;;18.03;63.15;101350.69;2160999;81;27677;-62
2021/10/07 12:22:55;;;;;;;40.30;30.92;;;;;;;17.91;63.24;101346.00;2082220;83;28725;-62
2021/10/07 12:26:01;;;;;;;39.75;29.92;;;;;;;17.89;63.18;101350.64;2111686;82;31974;-62
2021/10/07 12:29:27;;;;;;;36.00;28.52;;;;;;;17.83;63.18;101343.78;2109821;81;32997;-60
2021/10/07 12:32:33;;;;;;;38.13;27.37;;;;;;;17.79;63.36;101345.44;2159777;81;29385;-62
2021/10/07 12:35:39;;;;;;;41.33;27.87;;;;;;;17.81;63.39;101347.06;2138903;81;27812;-61
2021/10/07 12:38:57;;;;;;;33.15;25.65;;;;;;;17.81;62.96;101341.65;2161104;81;29333;-61
2021/10/07 12:42:06;;;;;;;36.05;28.87;;;;;;;17.79;63.13;101340.88;2144101;81;31233;-61
2021/10/07 12:45:09;;;;;;;40.48;30.77;;;;;;;17.81;63.07;101343.50;2134222;81;33396;-60
2021/10/07 12:48:11;;;;;;;44.77;29.10;;;;;;;17.73;63.24;101339.42;2108110;82;29339;-60
2021/10/07 12:51:14;;;;;;;36.95;29.40;;;;;;;17.74;63.05;101344.38;2082982;84;27738;-60
2021/10/07 12:54:18;;;;;;;45.20;30.75;;;;;;;17.70;63.24;101334.69;2160690;81;28668;-60
2021/10/07 12:57:47;;;;;;;39.45;29.92;;;;;;;17.69;63.36;101341.08;2156523;81;31011;-61
2021/10/07 13:00:49;;;;;;;40.73;29.63;;;;;;;17.63;63.36;101340.98;2125748;81;33049;-63
2021/10/07 13:04:13;;;;;;;34.83;28.25;;;;;;;17.58;63.37;101340.39;2113617;81;30414;-62
2021/10/07 13:07:18;;;;;;;35.55;25.57;;;;;;;17.58;63.70;101345.34;2139910;81;27820;-61
2021/10/07 13:10:21;;;;;;;35.25;25.55;;;;;;;17.60;63.54;101340.70;2124080;82;28653;-61
2021/10/07 13:13:25;;;;;;;39.60;29.52;;;;;;;17.58;63.33;101341.75;2121927;83;31079;-62
2021/10/07 13:16:30;;;;;;;34.35;25.90;;;;;;;17.53;63.12;101345.25;2115383;83;32996;-62
2021/10/07 13:19:34;;;;;;;32.90;25.20;;;;;;;17.46;63.10;101345.63;2056577;83;29348;-62
2021/10/07 13:22:38;;;;;;;34.25;25.50;;;;;;;17.45;63.38;101347.08;2091245;83;27812;-61
2021/10/07 13:25:45;;;;;;;32.65;25.55;;;;;;;17.42;63.26;101344.55;2112537;83;28638;-62
2021/10/07 13:28:50;;;;;;;34.78;24.90;;;;;;;17.38;63.28;101347.91;2047936;84;31254;-62
2021/10/07 13:31:55;;;;;;;31.02;25.12;;;;;;;17.31;63.30;101350.62;2000961;87;33000;-62
2021/10/07 13:35:00;;;;;;;30.95;24.32;;;;;;;17.24;63.31;101354.66;1999588;87;29378;-62
2021/10/07 13:38:04;;;;;;;28.65;22.58;;;;;;;17.18;63.54;101354.56;2017253;86;27916;-62
2021/10/07 13:41:08;;;;;;;29.77;23.75;;;;;;;17.19;63.70;101361.72;2094486;84;29559;-60
2021/10/07 13:44:10;;;;;;;34.63;24.15;;;;;;;17.21;64.00;101359.80;2094640;83;31054;-61
2021/10/07 13:47:15;;;;;;;30.25;23.45;;;;;;;17.23;63.90;101370.05;2072022;84;32934;-62
2021/10/07 13:50:19;;;;;;;28.73;22.35;;;;;;;17.20;63.66;101368.88;1997101;87;29536;-60
2021/10/07 13:53:21;;;;;;;32.63;22.85;;;;;;;17.13;63.41;101364.79;2072055;84;27749;-62
2021/10/07 13:56:25;;;;;;;29.98;22.82;;;;;;;17.04;63.24;101370.77;2083292;84;29518;-61
2021/10/07 13:59:29;;;;;;;32.08;23.62;;;;;;;16.90;63.36;101373.79;2091879;83;31071;-61
2021/10/07 14:02:34;;;;;;;32.33;23.67;;;;;;;16.85;63.57;101377.23;2075323;84;32990;-62
2021/10/07 14:05:44;;;;;;;31.62;24.65;;;;;;;16.84;63.82;101376.84;2072000;84;30255;-61
2021/10/07 14:08:44;;;;;;;33.23;24.82;;;;;;;16.80;63.89;101382.92;2095818;83;28481;-61
2021/10/07 14:11:47;;;;;;;43.92;30.95;;;;;;;16.83;64.09;101384.11;2099760;83;29746;-62
2021/10/07 14:14:51;;;;;;;37.00;27.10;;;;;;;16.70;64.08;101366.85;2120753;81;31040;-61
2021/10/07 14:17:56;;;;;;;37.28;26.80;;;;;;;16.76;64.09;101389.47;2182912;80;33902;-62